Time;durP1;ratioP1;P1;durP2;ratioP2;P2;SDS_P1;SDS_P2;PMS_P1;PMS_P2;Temp;Humidity;BMP_temperature;BMP_pressure;BME280_temperature;BME280_humidity;BME280_pressure;Samples;Min_cycle;Max_cycle;Signal;HPM_P1;HPM_P2
2022/12/20 00:00:21;;;;;;;68.55;35.05;;;;;;;;;;1040437;28;20029;-77
2022/12/20 00:00:52;;;;;;;73.95;29.48;;;;;;;;;;1041410;28;20063;-77
2022/12/20 00:01:24;;;;;;;79.55;34.58;;;;;;;;;;1041391;28;20022;-77
2022/12/20 00:01:55;;;;;;;74.68;32.22;;;;;;;;;;1045876;28;20021;-77
2022/12/20 00:02:25;;;;;;;78.75;34.42;;;;;;;;;;1050319;28;20023;-76
2022/12/20 00:02:56;;;;;;;106.72;36.08;;;;;;;;;;1050374;28;20033;-76
2022/12/20 00:03:27;;;;;;;67.03;34.33;;;;;;;;;;1050441;28;20024;-76
2022/12/20 00:03:59;;;;;;;73.70;35.10;;;;;;;;;;1050063;28;20028;-76
2022/12/20 00:04:30;;;;;;;77.75;34.65;;;;;;;;;;1045534;28;20016;-77
2022/12/20 00:05:00;;;;;;;66.38;31.58;;;;;;;;;;1045392;28;20052;-77
2022/12/20 00:05:34;;;;;;;78.50;32.67;;;;;;;;;;1043760;28;20017;-77
2022/12/20 00:06:05;;;;;;;80.15;30.30;;;;;;;;;;1042776;28;20064;-77
2022/12/20 00:06:36;;;;;;;70.57;30.52;;;;;;;;;;1046122;28;20020;-77
2022/12/20 00:07:07;;;;;;;76.05;34.60;;;;;;;;;;1045852;28;20021;-77
2022/12/20 00:07:37;;;;;;;70.55;32.25;;;;;;;;;;1050029;28;20028;-77
2022/12/20 00:08:08;;;;;;;80.03;33.58;;;;;;;;;;1050129;28;20060;-77
2022/12/20 00:08:39;;;;;;;74.00;36.55;;;;;;;;;;1050505;28;20028;-76
2022/12/20 00:09:11;;;;;;;90.47;41.00;;;;;;;;;;1050301;28;20016;-77
2022/12/20 00:09:41;;;;;;;66.00;33.15;;;;;;;;;;1049451;28;20047;-76
2022/12/20 00:10:12;;;;;;;77.97;34.03;;;;;;;;;;1047190;28;20562;-76
2022/12/20 00:10:44;;;;;;;79.60;34.83;;;;;;;;;;1050107;28;20024;-77
2022/12/20 00:11:14;;;;;;;80.53;34.60;;;;;;;;;;1049316;28;20024;-76
2022/12/20 00:11:45;;;;;;;81.00;35.40;;;;;;;;;;1051284;28;20535;-77
2022/12/20 00:12:16;;;;;;;63.70;30.45;;;;;;;;;;1049754;28;20065;-76
2022/12/20 00:12:46;;;;;;;72.18;33.85;;;;;;;;;;1049878;28;20029;-77
2022/12/20 00:13:17;;;;;;;83.50;31.27;;;;;;;;;;1049286;28;20024;-77
2022/12/20 00:13:47;;;;;;;64.15;29.75;;;;;;;;;;1050449;28;20079;-76
2022/12/20 00:14:18;;;;;;;83.97;36.03;;;;;;;;;;1050411;28;20016;-77
2022/12/20 00:14:49;;;;;;;77.30;33.90;;;;;;;;;;1045657;28;20029;-76
2022/12/20 00:15:20;;;;;;;69.70;37.30;;;;;;;;;;1046009;28;20064;-77
2022/12/20 00:15:50;;;;;;;66.03;33.67;;;;;;;;;;1045029;28;20016;-77
2022/12/20 00:16:22;;;;;;;80.63;33.63;;;;;;;;;;1045942;28;20056;-76
2022/12/20 00:16:52;;;;;;;73.07;33.63;;;;;;;;;;1051069;28;20015;-77
2022/12/20 00:17:23;;;;;;;79.95;32.95;;;;;;;;;;1049921;28;20491;-77
2022/12/20 00:17:53;;;;;;;83.68;36.42;;;;;;;;;;1051120;28;20463;-76
2022/12/20 00:18:24;;;;;;;77.53;32.65;;;;;;;;;;1049984;28;20356;-76
2022/12/20 00:18:59;;;;;;;75.38;34.33;;;;;;;;;;1049737;28;20031;-77
2022/12/20 00:19:30;;;;;;;64.03;30.92;;;;;;;;;;1050364;28;20130;-77
2022/12/20 00:20:00;;;;;;;72.35;32.85;;;;;;;;;;1049208;28;20415;-77
2022/12/20 00:20:31;;;;;;;78.90;31.02;;;;;;;;;;1045892;28;20420;-77
2022/12/20 00:21:02;;;;;;;86.50;33.90;;;;;;;;;;1043215;28;20381;-77
2022/12/20 00:21:34;;;;;;;87.40;33.28;;;;;;;;;;1043657;28;20416;-77
2022/12/20 00:22:04;;;;;;;81.07;35.67;;;;;;;;;;1044067;28;20390;-77
2022/12/20 00:22:35;;;;;;;62.60;31.20;;;;;;;;;;1045809;28;20039;-76
2022/12/20 00:23:05;;;;;;;67.18;32.65;;;;;;;;;;1050655;28;20031;-76
2022/12/20 00:23:36;;;;;;;86.53;34.17;;;;;;;;;;1051718;28;20022;-76
2022/12/20 00:24:07;;;;;;;91.45;36.42;;;;;;;;;;1049695;28;20111;-76
2022/12/20 00:24:37;;;;;;;83.03;34.40;;;;;;;;;;1049995;28;20017;-76
2022/12/20 00:25:08;;;;;;;73.40;34.17;;;;;;;;;;1049923;28;20430;-76
2022/12/20 00:25:38;;;;;;;70.88;32.63;;;;;;;;;;1050363;28;20098;-76
2022/12/20 00:26:11;;;;;;;80.18;35.47;;;;;;;;;;1045895;28;20043;-77
2022/12/20 00:26:41;;;;;;;81.70;33.20;;;;;;;;;;1043580;28;20047;-77
2022/12/20 00:27:12;;;;;;;74.00;31.92;;;;;;;;;;1043526;28;20036;-77
2022/12/20 00:27:42;;;;;;;63.92;28.88;;;;;;;;;;1043700;28;20571;-76
2022/12/20 00:28:13;;;;;;;76.85;33.38;;;;;;;;;;1044714;28;20013;-76
2022/12/20 00:28:44;;;;;;;62.00;32.20;;;;;;;;;;1041611;28;20027;-76
2022/12/20 00:29:15;;;;;;;71.63;31.27;;;;;;;;;;1044961;28;20469;-77
2022/12/20 00:29:45;;;;;;;73.95;32.15;;;;;;;;;;1044858;28;20021;-76
2022/12/20 00:30:16;;;;;;;75.68;34.75;;;;;;;;;;1045593;28;20043;-77
2022/12/20 00:30:52;;;;;;;74.57;33.88;;;;;;;;;;1049625;28;20048;-77
2022/12/20 00:31:23;;;;;;;79.15;35.55;;;;;;;;;;1048208;28;20020;-77
2022/12/20 00:31:54;;;;;;;70.82;31.55;;;;;;;;;;1044812;28;20025;-76
2022/12/20 00:32:25;;;;;;;77.50;30.77;;;;;;;;;;1044992;28;20264;-77
2022/12/20 00:32:56;;;;;;;72.20;32.35;;;;;;;;;;1043570;28;20009;-77
2022/12/20 00:33:27;;;;;;;75.38;33.60;;;;;;;;;;1041662;28;20025;-77
2022/12/20 00:33:58;;;;;;;71.88;33.22;;;;;;;;;;1045319;28;20032;-77
2022/12/20 00:34:28;;;;;;;71.10;34.35;;;;;;;;;;1045615;28;20025;-76
2022/12/20 00:34:59;;;;;;;75.07;34.40;;;;;;;;;;1045368;28;20483;-77
2022/12/20 00:35:29;;;;;;;79.07;36.20;;;;;;;;;;1045291;28;20021;-76
2022/12/20 00:36:00;;;;;;;70.97;34.65;;;;;;;;;;1046502;28;20024;-77
2022/12/20 00:36:31;;;;;;;65.82;30.77;;;;;;;;;;1045014;28;20056;-77
2022/12/20 00:37:01;;;;;;;68.03;34.58;;;;;;;;;;1045735;28;20024;-76
2022/12/20 00:37:32;;;;;;;75.97;34.10;;;;;;;;;;1044642;28;20139;-77
2022/12/20 00:38:03;;;;;;;77.55;33.55;;;;;;;;;;1045663;28;20115;-76
2022/12/20 00:38:34;;;;;;;74.55;32.38;;;;;;;;;;1045934;28;20025;-76
2022/12/20 00:39:04;;;;;;;77.95;35.45;;;;;;;;;;1044632;28;20469;-76
2022/12/20 00:39:35;;;;;;;70.68;33.33;;;;;;;;;;1045548;28;20032;-76
2022/12/20 00:40:06;;;;;;;78.47;37.42;;;;;;;;;;1045320;28;20028;-77
2022/12/20 00:40:36;;;;;;;69.40;32.65;;;;;;;;;;1044925;28;20021;-76
2022/12/20 00:41:08;;;;;;;74.53;34.28;;;;;;;;;;1051001;28;20016;-77
2022/12/20 00:41:39;;;;;;;79.20;32.60;;;;;;;;;;1050029;28;20059;-77
2022/12/20 00:42:09;;;;;;;71.38;31.80;;;;;;;;;;1049806;28;20383;-76
2022/12/20 00:42:40;;;;;;;84.85;35.25;;;;;;;;;;1044535;28;20021;-77
2022/12/20 00:43:11;;;;;;;71.85;31.05;;;;;;;;;;1046239;28;20127;-76
2022/12/20 00:43:42;;;;;;;74.85;31.33;;;;;;;;;;1046785;28;20033;-77
2022/12/20 00:44:13;;;;;;;73.93;30.70;;;;;;;;;;1046848;28;20048;-76
2022/12/20 00:44:43;;;;;;;70.40;29.33;;;;;;;;;;1050890;28;20028;-76
2022/12/20 00:45:14;;;;;;;73.70;34.50;;;;;;;;;;1050507;28;20069;-76
2022/12/20 00:45:44;;;;;;;71.10;33.17;;;;;;;;;;1046221;28;20025;-77
2022/12/20 00:46:16;;;;;;;98.55;35.53;;;;;;;;;;1045763;28;20028;-77
2022/12/20 00:46:47;;;;;;;71.35;33.10;;;;;;;;;;1045236;28;20480;-76
2022/12/20 00:47:17;;;;;;;74.75;30.85;;;;;;;;;;1044134;28;20029;-76
2022/12/20 00:47:48;;;;;;;87.00;38.35;;;;;;;;;;1040292;28;20029;-76
2022/12/20 00:48:19;;;;;;;84.20;34.70;;;;;;;;;;1041710;28;20420;-77
2022/12/20 00:48:50;;;;;;;73.07;34.38;;;;;;;;;;1041740;28;20412;-76
2022/12/20 00:49:20;;;;;;;83.20;32.58;;;;;;;;;;1042111;28;20405;-76
2022/12/20 00:49:51;;;;;;;71.05;32.67;;;;;;;;;;1046499;28;20040;-77
2022/12/20 00:50:21;;;;;;;64.20;31.85;;;;;;;;;;1041977;28;20021;-77
2022/12/20 00:50:56;;;;;;;65.10;31.45;;;;;;;;;;1046791;28;20527;-77
2022/12/20 00:51:28;;;;;;;84.95;36.75;;;;;;;;;;1046125;28;20021;-76
2022/12/20 00:51:58;;;;;;;86.85;34.00;;;;;;;;;;1047370;28;20078;-77
2022/12/20 00:52:29;;;;;;;86.45;35.35;;;;;;;;;;1050762;28;20024;-77
2022/12/20 00:52:59;;;;;;;80.32;31.38;;;;;;;;;;1046036;28;20090;-76
2022/12/20 00:53:30;;;;;;;72.03;31.70;;;;;;;;;;1046358;28;20027;-76
2022/12/20 00:54:01;;;;;;;69.40;31.20;;;;;;;;;;1044166;28;20120;-77
2022/12/20 00:54:32;;;;;;;75.90;32.78;;;;;;;;;;1040341;28;20021;-77
2022/12/20 00:55:03;;;;;;;72.93;35.08;;;;;;;;;;1044364;28;20050;-76
2022/12/20 00:55:33;;;;;;;84.45;33.58;;;;;;;;;;1042824;28;20108;-77
2022/12/20 00:56:05;;;;;;;72.15;32.50;;;;;;;;;;1042423;28;20025;-77
2022/12/20 00:56:35;;;;;;;72.03;32.22;;;;;;;;;;1042102;28;20028;-77
2022/12/20 00:57:06;;;;;;;73.13;32.78;;;;;;;;;;1042512;28;20496;-76
2022/12/20 00:57:36;;;;;;;76.13;35.75;;;;;;;;;;1041201;28;20118;-77
2022/12/20 00:58:07;;;;;;;68.22;32.28;;;;;;;;;;1046090;28;20459;-77
2022/12/20 00:58:39;;;;;;;71.43;31.38;;;;;;;;;;1051942;28;20024;-77
2022/12/20 00:59:09;;;;;;;73.95;34.72;;;;;;;;;;1048653;28;20098;-76
2022/12/20 00:59:40;;;;;;;81.90;36.63;;;;;;;;;;1050580;28;20081;-76
2022/12/20 01:00:11;;;;;;;71.40;32.83;;;;;;;;;;1050250;28;20046;-77
2022/12/20 01:00:41;;;;;;;77.38;33.15;;;;;;;;;;1049861;28;20041;-76
2022/12/20 01:01:26;;;;;;;73.47;32.33;;;;;;;;;;1050951;28;20110;-77
2022/12/20 01:01:56;;;;;;;84.35;32.45;;;;;;;;;;1046093;28;20016;-77
2022/12/20 01:02:27;;;;;;;68.55;33.92;;;;;;;;;;1046695;28;20028;-76
2022/12/20 01:02:57;;;;;;;81.22;33.85;;;;;;;;;;1045183;28;20392;-77
2022/12/20 01:03:28;;;;;;;82.13;32.45;;;;;;;;;;1041603;28;20523;-77
2022/12/20 01:03:59;;;;;;;80.57;31.40;;;;;;;;;;1044665;28;20388;-77
2022/12/20 01:04:30;;;;;;;78.55;36.40;;;;;;;;;;1042045;28;20040;-77
2022/12/20 01:05:00;;;;;;;60.42;29.33;;;;;;;;;;1044370;28;20021;-77
2022/12/20 01:05:31;;;;;;;63.95;32.47;;;;;;;;;;1046136;28;20063;-77
2022/12/20 01:06:02;;;;;;;68.20;32.83;;;;;;;;;;1041939;28;20048;-77
2022/12/20 01:06:32;;;;;;;77.07;32.90;;;;;;;;;;1046939;28;20510;-77
2022/12/20 01:07:03;;;;;;;63.65;33.70;;;;;;;;;;1046662;28;20455;-77
2022/12/20 01:07:33;;;;;;;82.65;36.10;;;;;;;;;;1045289;28;20438;-76
2022/12/20 01:08:04;;;;;;;75.97;35.38;;;;;;;;;;1050464;28;20025;-76
2022/12/20 01:08:35;;;;;;;76.22;34.28;;;;;;;;;;1050608;28;20048;-76
2022/12/20 01:09:05;;;;;;;91.80;36.97;;;;;;;;;;1050991;28;20054;-76
2022/12/20 01:09:36;;;;;;;74.50;32.55;;;;;;;;;;1050957;28;20102;-77
2022/12/20 01:10:07;;;;;;;72.55;33.63;;;;;;;;;;1046376;28;20082;-77
2022/12/20 01:10:37;;;;;;;81.47;31.75;;;;;;;;;;1043738;28;20017;-77
2022/12/20 01:11:11;;;;;;;68.47;32.75;;;;;;;;;;1046394;28;20539;-76
2022/12/20 01:11:41;;;;;;;80.68;33.42;;;;;;;;;;1046433;28;20025;-76
2022/12/20 01:12:12;;;;;;;84.45;32.55;;;;;;;;;;1050455;28;20020;-76
2022/12/20 01:12:42;;;;;;;79.88;35.60;;;;;;;;;;1045397;28;20024;-76
2022/12/20 01:13:13;;;;;;;82.78;33.67;;;;;;;;;;1046890;28;20056;-76
2022/12/20 01:13:45;;;;;;;79.10;33.15;;;;;;;;;;1043763;28;20029;-76
2022/12/20 01:14:16;;;;;;;74.18;33.70;;;;;;;;;;1041100;28;20047;-76
2022/12/20 01:14:46;;;;;;;78.32;36.30;;;;;;;;;;1044533;28;20032;-75
2022/12/20 01:15:17;;;;;;;92.68;38.28;;;;;;;;;;1050060;28;20073;-76
2022/12/20 01:15:47;;;;;;;72.28;32.38;;;;;;;;;;1049804;28;20020;-76
2022/12/20 01:16:23;;;;;;;71.90;30.45;;;;;;;;;;1049705;28;20710;-76
2022/12/20 01:16:53;;;;;;;98.18;34.53;;;;;;;;;;1054921;28;20012;-76
2022/12/20 01:17:24;;;;;;;70.00;32.35;;;;;;;;;;1051589;28;20027;-77
2022/12/20 01:17:54;;;;;;;78.78;34.75;;;;;;;;;;1045991;28;20088;-76
2022/12/20 01:18:25;;;;;;;81.63;32.35;;;;;;;;;;1044192;28;20021;-76
2022/12/20 01:18:55;;;;;;;71.28;31.80;;;;;;;;;;1043901;28;20025;-76
2022/12/20 01:19:26;;;;;;;94.90;35.83;;;;;;;;;;1046590;28;20111;-76
2022/12/20 01:19:57;;;;;;;75.03;33.90;;;;;;;;;;1044094;28;20484;-77
2022/12/20 01:20:27;;;;;;;82.82;35.25;;;;;;;;;;1042353;28;20069;-77
2022/12/20 01:21:05;;;;;;;91.80;35.45;;;;;;;;;;1047117;28;20108;-76
2022/12/20 01:21:37;;;;;;;79.90;32.65;;;;;;;;;;1045831;28;20047;-76
2022/12/20 01:22:07;;;;;;;66.05;35.70;;;;;;;;;;1045298;28;20025;-76
2022/12/20 01:22:38;;;;;;;63.17;33.88;;;;;;;;;;1050470;28;20025;-76
2022/12/20 01:23:08;;;;;;;81.43;32.65;;;;;;;;;;1048781;28;20024;-76
2022/12/20 01:23:39;;;;;;;64.00;31.98;;;;;;;;;;1051141;28;20024;-77
2022/12/20 01:24:14;;;;;;;69.60;31.05;;;;;;;;;;1050113;28;20035;-75
2022/12/20 01:24:44;;;;;;;73.90;33.85;;;;;;;;;;1050203;28;20519;-76
2022/12/20 01:25:15;;;;;;;73.13;33.47;;;;;;;;;;1050004;28;20025;-76
2022/12/20 01:25:49;;;;;;;81.97;36.95;;;;;;;;;;1050108;28;20475;-76
2022/12/20 01:26:21;;;;;;;72.32;32.33;;;;;;;;;;1049516;28;20027;-77
2022/12/20 01:26:51;;;;;;;66.05;35.90;;;;;;;;;;1050377;28;20479;-76
2022/12/20 01:27:22;;;;;;;70.82;35.58;;;;;;;;;;1048873;28;20016;-76
2022/12/20 01:27:52;;;;;;;69.97;35.78;;;;;;;;;;1051244;28;20020;-77
2022/12/20 01:28:23;;;;;;;73.63;35.13;;;;;;;;;;1046514;28;20419;-76
2022/12/20 01:28:55;;;;;;;67.80;33.63;;;;;;;;;;1043385;28;20036;-76
2022/12/20 01:29:25;;;;;;;67.03;32.97;;;;;;;;;;1042193;28;20118;-77
2022/12/20 01:29:56;;;;;;;74.47;33.28;;;;;;;;;;1043895;28;20036;-76
2022/12/20 01:30:26;;;;;;;79.47;36.33;;;;;;;;;;1041173;28;20104;-76
2022/12/20 01:30:57;;;;;;;78.13;35.28;;;;;;;;;;1040307;28;20135;-76
2022/12/20 01:31:29;;;;;;;73.28;34.05;;;;;;;;;;1037344;28;20506;-77
2022/12/20 01:31:59;;;;;;;66.80;33.72;;;;;;;;;;1042697;28;20066;-77
2022/12/20 01:32:30;;;;;;;74.25;33.38;;;;;;;;;;1044794;28;20435;-76
2022/12/20 01:33:00;;;;;;;68.82;30.98;;;;;;;;;;1047291;28;20463;-76
2022/12/20 01:33:31;;;;;;;77.68;33.65;;;;;;;;;;1047734;28;20016;-77
2022/12/20 01:34:02;;;;;;;91.93;36.10;;;;;;;;;;1051374;28;20027;-76
2022/12/20 01:34:32;;;;;;;64.60;32.22;;;;;;;;;;1053100;28;20051;-76
2022/12/20 01:35:03;;;;;;;72.07;35.72;;;;;;;;;;1051832;28;20432;-77
2022/12/20 01:35:34;;;;;;;66.90;32.35;;;;;;;;;;1049186;28;20432;-76
2022/12/20 01:36:06;;;;;;;64.60;32.38;;;;;;;;;;1044604;28;20021;-77
2022/12/20 01:36:37;;;;;;;81.30;33.60;;;;;;;;;;1046527;28;20033;-77
2022/12/20 01:37:09;;;;;;;70.85;35.30;;;;;;;;;;1038408;28;20072;-75
2022/12/20 01:37:40;;;;;;;80.38;35.38;;;;;;;;;;1042670;28;20025;-77
2022/12/20 01:38:11;;;;;;;61.80;32.38;;;;;;;;;;1044236;28;20525;-76
2022/12/20 01:38:42;;;;;;;73.63;34.40;;;;;;;;;;1047169;28;20457;-75
2022/12/20 01:39:13;;;;;;;69.40;33.25;;;;;;;;;;1049592;28;20119;-76
2022/12/20 01:39:44;;;;;;;78.35;37.63;;;;;;;;;;1051963;28;20456;-77
2022/12/20 01:40:15;;;;;;;68.70;32.75;;;;;;;;;;1049053;28;20039;-77
2022/12/20 01:40:45;;;;;;;80.13;36.75;;;;;;;;;;1051521;28;20016;-77
2022/12/20 01:41:20;;;;;;;65.32;34.25;;;;;;;;;;1049839;28;20063;-77
2022/12/20 01:41:51;;;;;;;73.00;36.70;;;;;;;;;;1045932;28;20484;-77
2022/12/20 01:42:21;;;;;;;70.45;34.70;;;;;;;;;;1045986;28;20021;-76
2022/12/20 01:42:52;;;;;;;78.00;33.38;;;;;;;;;;1046145;28;20020;-77
2022/12/20 01:43:24;;;;;;;72.20;37.42;;;;;;;;;;1045671;28;20028;-77
2022/12/20 01:43:58;;;;;;;71.78;35.97;;;;;;;;;;1046022;28;20020;-77
2022/12/20 01:44:29;;;;;;;68.38;34.85;;;;;;;;;;1045628;28;20024;-77
2022/12/20 01:45:00;;;;;;;74.45;36.33;;;;;;;;;;1046993;28;20029;-76
2022/12/20 01:45:31;;;;;;;80.90;34.10;;;;;;;;;;1045495;28;20512;-76
2022/12/20 01:46:01;;;;;;;80.03;34.65;;;;;;;;;;1050410;28;20461;-77
2022/12/20 01:46:33;;;;;;;66.10;34.08;;;;;;;;;;1046827;28;20420;-77
2022/12/20 01:47:04;;;;;;;72.05;32.83;;;;;;;;;;1045331;28;20056;-77
2022/12/20 01:47:36;;;;;;;65.90;34.58;;;;;;;;;;1045613;28;20024;-77
2022/12/20 01:48:06;;;;;;;68.60;34.30;;;;;;;;;;1046121;28;20032;-77
2022/12/20 01:48:37;;;;;;;79.72;37.58;;;;;;;;;;1049008;28;20020;-77
2022/12/20 01:49:11;;;;;;;66.20;31.27;;;;;;;;;;1044695;28;20032;-77
2022/12/20 01:49:43;;;;;;;60.90;31.08;;;;;;;;;;1044582;28;20508;-77
2022/12/20 01:50:14;;;;;;;75.20;35.08;;;;;;;;;;1045030;28;20024;-77
2022/12/20 01:50:45;;;;;;;73.15;32.38;;;;;;;;;;1047517;28;20029;-77
2022/12/20 01:51:16;;;;;;;58.67;29.85;;;;;;;;;;1045425;28;20442;-77
2022/12/20 01:51:52;;;;;;;71.25;31.60;;;;;;;;;;1045383;28;20774;-77
2022/12/20 01:52:30;;;;;;;58.63;30.55;;;;;;;;;;1045480;28;20016;-76
2022/12/20 01:53:03;;;;;;;60.08;27.10;;;;;;;;;;1046616;28;20487;-75
2022/12/20 01:53:33;;;;;;;58.67;26.40;;;;;;;;;;1043499;28;20020;-77
2022/12/20 01:54:07;;;;;;;55.17;25.67;;;;;;;;;;1043520;28;20112;-77
2022/12/20 01:54:43;;;;;;;50.60;27.10;;;;;;;;;;1042322;28;20021;-77
2022/12/20 01:55:18;;;;;;;46.97;25.60;;;;;;;;;;1043322;28;20512;-77
2022/12/20 01:55:49;;;;;;;59.75;27.20;;;;;;;;;;1045227;28;20429;-77
2022/12/20 01:56:20;;;;;;;55.33;28.55;;;;;;;;;;1044050;28;20054;-77
2022/12/20 01:56:53;;;;;;;71.63;32.60;;;;;;;;;;1046504;28;20020;-77
2022/12/20 01:57:26;;;;;;;58.15;30.48;;;;;;;;;;1045124;28;20024;-77
2022/12/20 01:58:02;;;;;;;67.68;30.92;;;;;;;;;;1048550;28;20025;-78
2022/12/20 01:58:34;;;;;;;56.92;29.95;;;;;;;;;;1047687;28;20024;-77
2022/12/20 01:59:05;;;;;;;60.38;28.48;;;;;;;;;;1049544;28;20030;-77
2022/12/20 01:59:37;;;;;;;63.63;30.08;;;;;;;;;;1046207;28;20481;-77
2022/12/20 02:00:09;;;;;;;57.47;29.85;;;;;;;;;;1047977;28;20030;-77
2022/12/20 02:00:39;;;;;;;62.72;34.03;;;;;;;;;;1041458;28;20564;-77
2022/12/20 02:01:10;;;;;;;69.35;32.03;;;;;;;;;;1036489;28;20033;-77
2022/12/20 02:01:43;;;;;;;68.65;30.60;;;;;;;;;;1040882;28;20029;-77
2022/12/20 02:02:14;;;;;;;72.75;30.08;;;;;;;;;;1038520;28;20029;-77
2022/12/20 02:02:48;;;;;;;60.30;32.00;;;;;;;;;;1044765;28;20021;-77
2022/12/20 02:03:19;;;;;;;69.95;31.23;;;;;;;;;;1039325;28;20889;-77
2022/12/20 02:03:51;;;;;;;70.63;32.05;;;;;;;;;;1041796;28;20040;-76
2022/12/20 02:04:21;;;;;;;76.18;35.72;;;;;;;;;;1039212;28;20055;-76
2022/12/20 02:04:52;;;;;;;68.75;36.08;;;;;;;;;;1040709;28;20056;-77
2022/12/20 02:05:23;;;;;;;69.70;33.75;;;;;;;;;;1040938;28;20024;-76
2022/12/20 02:05:53;;;;;;;72.20;33.78;;;;;;;;;;1044393;28;20070;-77
2022/12/20 02:06:25;;;;;;;76.05;33.08;;;;;;;;;;1043262;28;20025;-77
2022/12/20 02:06:56;;;;;;;73.40;36.22;;;;;;;;;;1045069;28;20040;-77
2022/12/20 02:07:29;;;;;;;78.80;36.25;;;;;;;;;;1042801;28;20554;-77
2022/12/20 02:08:00;;;;;;;53.38;28.30;;;;;;;;;;1044751;28;20017;-77
2022/12/20 02:08:31;;;;;;;57.83;26.83;;;;;;;;;;1041842;28;20025;-77
2022/12/20 02:09:02;;;;;;;47.22;26.27;;;;;;;;;;1045689;28;20111;-77
2022/12/20 02:09:34;;;;;;;51.35;25.85;;;;;;;;;;1043640;28;20532;-77
2022/12/20 02:10:06;;;;;;;40.92;21.10;;;;;;;;;;1046421;28;20204;-77
2022/12/20 02:10:53;;;;;;;43.75;23.83;;;;;;;;;;1050312;28;20471;-78
2022/12/20 02:11:24;;;;;;;54.75;22.85;;;;;;;;;;1042748;28;21166;-77
2022/12/20 02:11:54;;;;;;;44.38;23.50;;;;;;;;;;1041194;28;20036;-77
2022/12/20 02:12:29;;;;;;;51.63;24.02;;;;;;;;;;1040476;28;20508;-77
2022/12/20 02:13:06;;;;;;;45.15;20.45;;;;;;;;;;1041432;28;20029;-77
2022/12/20 02:13:44;;;;;;;50.42;23.40;;;;;;;;;;1041744;28;20025;-76
2022/12/20 02:14:18;;;;;;;42.08;22.00;;;;;;;;;;1044454;28;20483;-76
2022/12/20 02:15:07;;;;;;;46.80;23.42;;;;;;;;;;1039384;28;20089;-77
2022/12/20 02:15:49;;;;;;;50.15;24.08;;;;;;;;;;1037908;28;20027;-76
2022/12/20 02:16:25;;;;;;;68.72;29.45;;;;;;;;;;1037536;28;20029;-77
2022/12/20 02:17:00;;;;;;;60.60;27.38;;;;;;;;;;1042226;28;20511;-77
2022/12/20 02:17:49;;;;;;;72.10;34.55;;;;;;;;;;1046520;28;20025;-77
2022/12/20 02:18:21;;;;;;;67.40;35.55;;;;;;;;;;1050261;28;20019;-76
2022/12/20 02:18:57;;;;;;;91.78;37.85;;;;;;;;;;1045390;28;20020;-76
2022/12/20 02:19:34;;;;;;;81.10;35.92;;;;;;;;;;1039951;28;20108;-77
2022/12/20 02:20:23;;;;;;;85.22;38.47;;;;;;;;;;1041340;28;20017;-76
2022/12/20 02:21:02;;;;;;;73.60;33.30;;;;;;;;;;1041973;28;20025;-77
2022/12/20 02:21:38;;;;;;;56.92;27.52;;;;;;;;;;1043761;28;20020;-76
2022/12/20 02:22:21;;;;;;;60.40;28.25;;;;;;;;;;1049199;28;20046;-76
2022/12/20 02:22:54;;;;;;;62.72;28.40;;;;;;;;;;1049182;28;20020;-76
2022/12/20 02:23:41;;;;;;;68.10;30.75;;;;;;;;;;1049621;28;20036;-77
2022/12/20 02:24:12;;;;;;;67.95;30.05;;;;;;;;;;1044976;28;20099;-77
2022/12/20 02:24:54;;;;;;;75.25;32.67;;;;;;;;;;1042357;28;20084;-77
2022/12/20 02:25:43;;;;;;;68.60;30.42;;;;;;;;;;1043054;28;20177;-76
2022/12/20 02:26:19;;;;;;;71.63;30.38;;;;;;;;;;1042518;28;20021;-77
2022/12/20 02:26:50;;;;;;;76.22;30.08;;;;;;;;;;1050099;28;20016;-77
2022/12/20 02:27:29;;;;;;;59.78;27.42;;;;;;;;;;1049274;28;20042;-77
2022/12/20 02:28:03;;;;;;;52.30;26.73;;;;;;;;;;1046110;28;20035;-77
2022/12/20 02:28:52;;;;;;;69.88;29.25;;;;;;;;;;1045303;28;20028;-77
2022/12/20 02:29:35;;;;;;;68.40;26.80;;;;;;;;;;1043915;28;20098;-77
2022/12/20 02:30:07;;;;;;;63.97;26.80;;;;;;;;;;1051227;28;20051;-77
2022/12/20 02:30:40;;;;;;;59.28;22.55;;;;;;;;;;1049871;28;20039;-77
2022/12/20 02:31:12;;;;;;;56.80;25.20;;;;;;;;;;1049138;28;20735;-76
2022/12/20 02:31:52;;;;;;;53.60;23.00;;;;;;;;;;1050389;28;20364;-77
2022/12/20 02:32:27;;;;;;;53.90;24.85;;;;;;;;;;1046796;28;20036;-77
2022/12/20 02:33:06;;;;;;;49.70;22.33;;;;;;;;;;1047363;28;20028;-77
2022/12/20 02:33:38;;;;;;;58.35;27.23;;;;;;;;;;1047843;28;20170;-77
2022/12/20 02:34:09;;;;;;;59.30;24.17;;;;;;;;;;1047806;28;20854;-77
2022/12/20 02:34:41;;;;;;;53.80;26.55;;;;;;;;;;1048061;28;20029;-76
2022/12/20 02:35:13;;;;;;;61.63;24.25;;;;;;;;;;1050374;28;20802;-77
2022/12/20 02:35:44;;;;;;;60.35;25.80;;;;;;;;;;1049702;28;20047;-77
2022/12/20 02:36:17;;;;;;;60.90;26.02;;;;;;;;;;1046354;28;20023;-78
2022/12/20 02:36:48;;;;;;;53.15;23.70;;;;;;;;;;1043100;28;20557;-77
2022/12/20 02:37:18;;;;;;;44.63;20.75;;;;;;;;;;1040703;28;20020;-77
2022/12/20 02:37:54;;;;;;;45.03;22.52;;;;;;;;;;1041103;28;20040;-77
2022/12/20 02:38:29;;;;;;;49.75;20.50;;;;;;;;;;1044906;28;20518;-77
2022/12/20 02:38:59;;;;;;;46.28;22.73;;;;;;;;;;1042691;28;20028;-77
2022/12/20 02:39:31;;;;;;;49.25;22.23;;;;;;;;;;1039881;28;20045;-77
2022/12/20 02:40:03;;;;;;;39.90;22.15;;;;;;;;;;1040859;28;20083;-76
2022/12/20 02:40:36;;;;;;;38.28;21.50;;;;;;;;;;1039675;28;20092;-77
2022/12/20 02:41:24;;;;;;;40.60;21.77;;;;;;;;;;1041881;28;20021;-77
2022/12/20 02:42:15;;;;;;;41.22;20.98;;;;;;;;;;1038331;28;20071;-76
2022/12/20 02:42:47;;;;;;;41.40;18.38;;;;;;;;;;1041299;28;20060;-76
2022/12/20 02:45:14;;;;;;;41.13;22.02;;;;;;;;;;1047329;28;20028;-77
2022/12/20 02:45:44;;;;;;;39.33;17.25;;;;;;;;;;1047749;28;20074;-77
2022/12/20 02:46:17;;;;;;;40.83;20.08;;;;;;;;;;1047815;28;20376;-76
2022/12/20 02:46:48;;;;;;;48.65;18.98;;;;;;;;;;1045479;28;20013;-75
2022/12/20 02:47:39;;;;;;;38.10;19.25;;;;;;;;;;1043004;28;20021;-76
2022/12/20 02:48:11;;;;;;;40.72;18.98;;;;;;;;;;1044960;28;20060;-77
2022/12/20 02:48:42;;;;;;;47.55;20.23;;;;;;;;;;1042034;28;20444;-77
2022/12/20 02:49:15;;;;;;;33.20;17.65;;;;;;;;;;1038608;28;20055;-77
2022/12/20 02:49:46;;;;;;;39.97;17.80;;;;;;;;;;1038909;28;20090;-75
2022/12/20 02:50:20;;;;;;;42.10;20.05;;;;;;;;;;1037025;28;20024;-75
2022/12/20 02:50:53;;;;;;;33.78;18.83;;;;;;;;;;1041960;28;20059;-76
2022/12/20 02:51:26;;;;;;;37.35;18.92;;;;;;;;;;1040264;28;20032;-77
2022/12/20 02:51:57;;;;;;;29.40;16.42;;;;;;;;;;1039394;28;20359;-77
2022/12/20 02:52:29;;;;;;;32.47;15.20;;;;;;;;;;1040930;28;20035;-77
2022/12/20 02:53:00;;;;;;;38.05;17.80;;;;;;;;;;1041372;28;20049;-76
2022/12/20 02:53:31;;;;;;;26.00;15.80;;;;;;;;;;1042531;28;20032;-76
2022/12/20 02:54:03;;;;;;;25.38;12.82;;;;;;;;;;1039409;28;20081;-76
2022/12/20 02:54:34;;;;;;;24.73;14.38;;;;;;;;;;1041165;28;20135;-76
2022/12/20 02:55:05;;;;;;;20.88;12.75;;;;;;;;;;1039069;28;20037;-77
2022/12/20 02:55:38;;;;;;;34.63;16.65;;;;;;;;;;1036714;28;20150;-76
2022/12/20 02:56:12;;;;;;;34.13;12.57;;;;;;;;;;1034472;28;20473;-77
2022/12/20 02:56:43;;;;;;;32.50;16.63;;;;;;;;;;1042100;28;20055;-77
2022/12/20 02:57:29;;;;;;;34.70;15.65;;;;;;;;;;1042926;28;20585;-76
2022/12/20 02:58:03;;;;;;;27.75;15.45;;;;;;;;;;1043170;28;20039;-77
2022/12/20 02:58:39;;;;;;;26.95;14.38;;;;;;;;;;1043412;28;20032;-77
2022/12/20 02:59:12;;;;;;;26.65;12.90;;;;;;;;;;1044839;28;20111;-76
2022/12/20 02:59:52;;;;;;;31.52;14.55;;;;;;;;;;1047084;28;20392;-76
2022/12/20 03:00:25;;;;;;;39.17;17.35;;;;;;;;;;1047373;28;20059;-77
2022/12/20 03:00:56;;;;;;;26.83;14.18;;;;;;;;;;1054938;22;20476;-76
2022/12/20 03:01:32;;;;;;;39.85;15.25;;;;;;;;;;1047828;28;20029;-76
2022/12/20 03:02:04;;;;;;;25.33;13.60;;;;;;;;;;1049425;28;20091;-76
2022/12/20 03:03:25;;;;;;;35.53;16.88;;;;;;;;;;1049318;28;20040;-76
2022/12/20 03:03:57;;;;;;;27.13;15.38;;;;;;;;;;1048892;28;20029;-76
2022/12/20 03:04:30;;;;;;;33.10;16.35;;;;;;;;;;1047277;28;20029;-77
2022/12/20 03:05:01;;;;;;;32.40;16.40;;;;;;;;;;1043848;28;20025;-77
2022/12/20 03:05:33;;;;;;;46.50;17.17;;;;;;;;;;1043234;28;20639;-77
2022/12/20 03:06:05;;;;;;;40.47;19.90;;;;;;;;;;1042007;28;20039;-77
2022/12/20 03:06:54;;;;;;;46.40;17.83;;;;;;;;;;1044909;28;20115;-77
2022/12/20 03:07:27;;;;;;;35.05;16.58;;;;;;;;;;1042218;28;20033;-78
2022/12/20 03:07:58;;;;;;;39.58;20.55;;;;;;;;;;1043025;28;20055;-77
2022/12/20 03:08:29;;;;;;;34.00;16.13;;;;;;;;;;1038999;28;20025;-76
2022/12/20 03:09:00;;;;;;;32.95;15.45;;;;;;;;;;1039201;28;20021;-77
2022/12/20 03:09:32;;;;;;;33.88;17.23;;;;;;;;;;1040496;28;20025;-77
2022/12/20 03:10:03;;;;;;;45.35;17.85;;;;;;;;;;1043105;28;20013;-78
2022/12/20 03:10:37;;;;;;;31.13;13.85;;;;;;;;;;1042863;28;20546;-75
2022/12/20 03:11:07;;;;;;;35.72;16.50;;;;;;;;;;1046126;28;20035;-76